Flight Track Log - Related Links

Times and Time Zones

All times are in EDT time to prevent confusion due to time zone crossing. See the N99910 flight status page for this flight to view local times or setup timezone preferences in your user account.


Time Position Orientation Groundspeed Altitude Reporting Facility
EDT Latitude Longitude Course Direction KTS MPH feet Rate Location/Type
Wed 08:59:37 PM 35.8261 -83.9906 323° Northwest 150 173 1,900  Level Indianapolis Center
Wed 09:00:39 PM 35.8450 -84.0081 323° Northwest 99 114 2,700 683 Climbing Indianapolis Center
Wed 09:01:40 PM 35.8656 -84.0281 322° Northwest 94 108 3,300 634 Climbing Indianapolis Center
Wed 09:02:42 PM 35.8919 -84.0278 360° North 92 106 4,000 732 Climbing Indianapolis Center
Wed 09:03:43 PM 35.9225 -84.0217 North 93 107 4,800 541 Climbing Indianapolis Center
Wed 09:04:44 PM 35.9503 -84.0181 North 97 112 5,100 341 Climbing Indianapolis Center
Wed 09:05:46 PM 35.9858 -84.0122 North 118 136 5,500 439 Climbing Indianapolis Center
Wed 09:06:47 PM 36.0131 -84.0092 North 109 125 6,000 295 Climbing Indianapolis Center
Wed 09:07:48 PM 36.0439 -84.0042 North 109 125 6,100 49 Climbing Indianapolis Center
Wed 09:08:50 PM 36.0800 -83.9975 North 124 143 6,100  Level Indianapolis Center
Wed 09:09:43 PM 36.1167 -83.9950 North 144 166 6,100  Level Atlanta Center
Wed 09:10:43 PM 36.1522 -83.9897 North 132 152 6,100  Level Atlanta Center
Wed 09:11:43 PM 36.1875 -83.9872 North 126 145 6,100 -50 Level Atlanta Center
Wed 09:12:43 PM 36.2231 -83.9822 North 126 145 6,000  Descending Atlanta Center
Wed 09:13:57 PM 36.2692 -83.9703 12° North 131 151 6,100 44 Climbing Indianapolis Center
Wed 09:14:58 PM 36.3053 -83.9650 North 130 150 6,100  Level Indianapolis Center
Wed 09:15:59 PM 36.3406 -83.9578 North 130 150 6,100 -49 Level Indianapolis Center
Wed 09:17:01 PM 36.3786 -83.9517 North 134 154 6,000 -49 Descending Indianapolis Center
Wed 09:18:02 PM 36.4164 -83.9467 North 136 157 6,000  Level Indianapolis Center
Wed 09:19:03 PM 36.4522 -83.9408 North 132 152 6,000  Level Indianapolis Center
Wed 09:20:05 PM 36.4894 -83.9353 North 134 154 6,000 49 Level Indianapolis Center
Wed 09:21:06 PM 36.5314 -83.9306 North 134 154 6,100 49 Climbing Indianapolis Center
Wed 09:22:07 PM 36.5681 -83.9236 North 133 153 6,100  Level Indianapolis Center
Wed 09:23:09 PM 36.6053 -83.9189 North 134 154 6,100  Level Indianapolis Center
Wed 09:24:10 PM 36.6442 -83.9128 North 138 159 6,100  Level Indianapolis Center
Wed 09:25:12 PM 36.6808 -83.9067 North 136 157 6,100  Level Indianapolis Center
Wed 09:26:13 PM 36.7178 -83.9008 North 134 154 6,100 -49 Level Indianapolis Center
Wed 09:27:14 PM 36.7550 -83.8961 North 133 153 6,000 -49 Descending Indianapolis Center
Wed 09:28:16 PM 36.7986 -83.8892 North 135 155 6,000  Level Indianapolis Center
Wed 09:29:17 PM 36.8369 -83.8833 North 137 158 6,000  Level Indianapolis Center
Wed 09:30:18 PM 36.8733 -83.8778 North 134 154 6,000  Level Indianapolis Center
Wed 09:31:20 PM 36.9100 -83.8719 North 133 153 6,000  Level Indianapolis Center
Wed 09:32:21 PM 36.9469 -83.8667 North 133 153 6,000  Level Indianapolis Center
Wed 09:33:22 PM 36.9833 -83.8611 North 132 152 6,000 49 Level Indianapolis Center
Wed 09:34:24 PM 37.0222 -83.8564 North 137 158 6,100 49 Climbing Indianapolis Center
Wed 09:35:25 PM 37.0592 -83.8492 North 135 155 6,100  Level Indianapolis Center
Wed 09:36:26 PM 37.0967 -83.8439 North 135 155 6,100  Level Indianapolis Center
Wed 09:37:28 PM 37.1414 -83.8378 North 138 159 6,100  Level Indianapolis Center
Wed 09:38:29 PM 37.1786 -83.8314 North 136 157 6,100  Level Indianapolis Center
Wed 09:39:30 PM 37.2158 -83.8258 North 135 155 6,100 -49 Level Indianapolis Center
Wed 09:40:31 PM 37.2539 -83.8197 North 136 157 6,000  Descending Indianapolis Center
Wed 09:41:33 PM 37.2919 -83.8144 North 136 157 6,100  Climbing Indianapolis Center
Wed 09:42:34 PM 37.3300 -83.8086 North 137 158 6,000  Descending Indianapolis Center
Wed 09:43:35 PM 37.3686 -83.8028 North 138 159 6,100  Climbing Indianapolis Center
Wed 09:44:37 PM 37.4064 -83.7975 North 138 159 6,000  Descending Indianapolis Center
Wed 09:45:38 PM 37.4433 -83.7906 North 136 157 6,100 49 Climbing Indianapolis Center
Wed 09:46:39 PM 37.4822 -83.7856 North 138 159 6,100  Level Indianapolis Center
Wed 09:47:40 PM 37.5272 -83.7786 North 138 159 6,100  Level Indianapolis Center
Wed 09:48:42 PM 37.5658 -83.7725 North 139 160 6,100  Level Indianapolis Center
Wed 09:49:43 PM 37.6039 -83.7672 North 138 159 6,100  Level Indianapolis Center
Wed 09:50:44 PM 37.6428 -83.7600 North 140 161 6,100  Level Indianapolis Center
Wed 09:51:45 PM 37.6808 -83.7542 North 138 159 6,100  Level Indianapolis Center
Wed 09:52:47 PM 37.7183 -83.7486 North 136 157 6,100  Level Indianapolis Center
Wed 09:53:48 PM 37.7581 -83.7428 North 141 162 6,100  Level Indianapolis Center
Wed 09:54:49 PM 37.7961 -83.7369 North 139 160 6,100  Level Indianapolis Center
Wed 09:55:50 PM 37.8347 -83.7317 North 139 160 6,100 -49 Level Indianapolis Center
Wed 09:56:51 PM 37.8728 -83.7258 North 139 160 6,000  Descending Indianapolis Center
Wed 09:57:52 PM 37.9172 -83.7183 North 138 159 6,100 49 Climbing Indianapolis Center
Wed 09:58:54 PM 37.9553 -83.7125 North 137 158 6,100  Level Indianapolis Center
Wed 09:59:55 PM 37.9939 -83.7056 North 138 159 6,100 -49 Level Indianapolis Center
Wed 10:00:56 PM 38.0325 -83.6986 North 139 160 6,000  Descending Indianapolis Center
Wed 10:01:57 PM 38.0711 -83.6931 North 139 160 6,100  Climbing Indianapolis Center
Wed 10:02:58 PM 38.1094 -83.6867 North 139 160 6,000 -49 Descending Indianapolis Center
Wed 10:03:59 PM 38.1492 -83.6806 North 142 163 6,000 49 Level Indianapolis Center
Wed 10:05:00 PM 38.1878 -83.6761 North 141 162 6,100  Climbing Indianapolis Center
Wed 10:06:01 PM 38.2269 -83.6675 10° North 141 162 6,000 -49 Descending Indianapolis Center
Wed 10:07:03 PM 38.2661 -83.6614 North 141 162 6,000 49 Level Indianapolis Center
Wed 10:08:04 PM 38.3053 -83.6553 North 141 162 6,100 49 Climbing Indianapolis Center
Wed 10:09:05 PM 38.3517 -83.6489 North 143 165 6,100  Level Indianapolis Center
Wed 10:10:06 PM 38.3900 -83.6431 North 139 160 6,100  Level Indianapolis Center
Wed 10:11:07 PM 38.4297 -83.6364 North 142 163 6,100  Level Indianapolis Center
Wed 10:12:08 PM 38.4681 -83.6311 North 139 160 6,100  Level Indianapolis Center
Wed 10:13:09 PM 38.5078 -83.6250 North 142 163 6,100  Level Indianapolis Center
Wed 10:14:10 PM 38.5472 -83.6175 North 142 163 6,100  Level Indianapolis Center
Wed 10:15:11 PM 38.5864 -83.6117 North 142 163 6,100  Level Indianapolis Center
Wed 10:16:12 PM 38.6253 -83.6050 North 141 162 6,100 -49 Level Indianapolis Center
Wed 10:17:13 PM 38.6636 -83.6011 North 140 161 6,000 -49 Descending Indianapolis Center
Wed 10:18:14 PM 38.7036 -83.5944 North 144 166 6,000  Level Indianapolis Center
Wed 10:19:15 PM 38.7422 -83.5886 North 141 162 6,000  Level Indianapolis Center
Wed 10:20:16 PM 38.7811 -83.5825 North 141 162 6,000  Level Indianapolis Center
Wed 10:21:17 PM 38.8192 -83.5747 North 139 160 6,000  Level Indianapolis Center
Wed 10:22:18 PM 38.8575 -83.5689 North 139 160 6,000  Level Indianapolis Center
Wed 10:23:19 PM 38.9044 -83.5600 North 142 163 6,000  Level Indianapolis Center
Wed 10:24:20 PM 38.9433 -83.5556 North 141 162 6,000  Level Indianapolis Center
Wed 10:25:21 PM 38.9831 -83.5489 North 143 165 6,000  Level Indianapolis Center
Wed 10:26:22 PM 39.0222 -83.5425 North 139 160 6,000  Level Indianapolis Center
Wed 10:27:22 PM 39.0603 -83.5369 North 142 163 6,000  Level Indianapolis Center
Wed 10:28:23 PM 39.0986 -83.5311 North 138 159 6,000  Level Indianapolis Center
Wed 10:29:24 PM 39.1381 -83.5242 North 142 163 6,000  Level Indianapolis Center
Wed 10:29:28 PM 39.1433 -83.5247 355° North 139 160 6,000  Level Indianapolis Center
Wed 10:30:16 PM 39.1733 -83.5189 North 140 161 6,000  Level Indianapolis Center
Wed 10:30:25 PM 39.1767 -83.5186 North 142 163 6,000  Level Indianapolis Center
Wed 10:31:17 PM 39.2139 -83.5119 North 141 162 6,000  Level Indianapolis Center
Wed 10:31:26 PM 39.2153 -83.5117 North 140 161 6,000  Level Indianapolis Center
Wed 10:32:18 PM 39.2522 -83.5078 North 140 161 6,000 -98 Level Indianapolis Center
Wed 10:32:27 PM 39.2542 -83.5061 34° Northeast 140 161 5,900 -98 Descending Indianapolis Center
Wed 10:33:19 PM 39.2931 -83.4983 North 140 161 5,900 98 Level Indianapolis Center
Wed 10:33:28 PM 39.2928 -83.4994 252° West 141 162 6,000 86 Climbing Indianapolis Center
Wed 10:34:29 PM 39.3317 -83.4925 North 141 162 6,000  Level Indianapolis Center
Wed 10:35:20 PM 39.3722 -83.4869 North 141 162 6,000  Level Indianapolis Center
Wed 10:35:30 PM 39.3708 -83.4858 148° Southeast 141 162 6,000 -85 Level Indianapolis Center
Wed 10:36:31 PM 39.4178 -83.4800 North 142 163 5,900 -295 Descending Indianapolis Center
Wed 10:37:32 PM 39.4583 -83.4728 North 144 166 5,400 -492 Descending Indianapolis Center
Wed 10:38:33 PM 39.5028 -83.4653 North 152 175 4,900 -484 Descending Indianapolis Center
Wed 10:38:34 PM 39.5047 -83.4658 348° North 154 177 4,900 -480 Level Indianapolis Center
Wed 10:39:23 PM 39.5386 -83.4606 North 155 178 4,500 -500 Descending Indianapolis Center
Wed 10:39:34 PM 39.5447 -83.4583 16° North 153 176 4,400 -492 Descending Indianapolis Center
Wed 10:40:24 PM 39.5814 -83.4542 North 153 176 4,000 -393 Descending Indianapolis Center
Wed 10:40:35 PM 39.5867 -83.4517 20° North 153 176 4,000 -179 Level Indianapolis Center
Wed 10:41:31 PM 39.6286 -83.4456 North 151 174 3,800 -197 Descending Indianapolis Center
Wed 10:41:36 PM 39.6292 -83.4444 57° Northeast 153 176 3,800 -364 Level Indianapolis Center
Wed 10:42:37 PM 39.6722 -83.4378 North 155 178 3,400 -436 Descending Indianapolis Center
Wed 10:43:26 PM 39.7119 -83.4325 North 155 178 3,000 -393 Descending Indianapolis Center
Wed 10:43:38 PM 39.7142 -83.4306 34° Northeast 154 177 3,000  Level Indianapolis Center
Wed 10:44:27 PM 39.7525 -83.4256 North 147 169 3,000  Level Indianapolis Center
Wed 10:44:39 PM 39.7542 -83.4258 353° North 150 173 3,000  Level Indianapolis Center
Wed 10:45:28 PM 39.7928 -83.4214 North 147 169 3,000  Level Indianapolis Center
Wed 10:45:41 PM 39.7939 -83.4211 11° North 147 169 3,000  Level Indianapolis Center
Wed 10:46:29 PM 39.8314 -83.4142 North 144 166 3,000  Level Indianapolis Center
Wed 10:46:42 PM 39.8397 -83.4131 North 143 165 3,000  Level Indianapolis Center
Wed 10:47:29 PM 39.8700 -83.4069 North 139 160 3,000  Level Indianapolis Center
Wed 10:47:43 PM 39.8781 -83.4069 360° North 142 163 3,000  Level Indianapolis Center
Wed 10:48:30 PM 39.9125 -83.4006 North 146 168 3,000  Level Indianapolis Center
Wed 10:48:44 PM 39.9175 -83.4000 North 143 165 3,000  Level Indianapolis Center
Wed 10:49:45 PM 39.9622 -83.3931 North 143 165 3,000  Level Indianapolis Center

Login

Don't have an account? Register now (free) for customized features, flight alerts, and more!